createdAt,value
2023-03-01T00:00:23.266Z,10.19
2023-03-01T00:01:22.555Z,12.60
2023-03-01T00:02:21.389Z,11.30
2023-03-01T00:03:21.966Z,9.600
2023-03-01T00:04:22.592Z,12
2023-03-01T00:05:22.684Z,10.5
2023-03-01T00:06:22.309Z,11.39
2023-03-01T00:07:21.864Z,11.10
2023-03-01T00:08:22.172Z,9.899
2023-03-01T00:10:22.287Z,10.60
2023-03-01T00:11:21.598Z,10.80
2023-03-01T00:12:22.412Z,10.19
2023-03-01T00:13:22.062Z,10.89
2023-03-01T00:14:22.129Z,12
2023-03-01T00:15:22.571Z,10.89
2023-03-01T00:16:21.873Z,10.5
2023-03-01T00:17:21.337Z,10.80
2023-03-01T00:18:21.740Z,10.69
2023-03-01T00:19:21.649Z,10.80
2023-03-01T00:20:22.379Z,11.10
2023-03-01T00:22:21.701Z,10.60
2023-03-01T00:23:21.450Z,10.80
2023-03-01T00:24:22.120Z,11.89
2023-03-01T00:25:21.343Z,12.10
2023-03-01T00:26:21.881Z,11.10
2023-03-01T00:27:21.740Z,11.19
2023-03-01T00:28:21.409Z,11.30
2023-03-01T00:29:21.905Z,11.5
2023-03-01T00:30:22.295Z,11.69
2023-03-01T00:31:21.413Z,10.5
2023-03-01T00:32:21.288Z,10.80
2023-03-01T00:33:21.795Z,11.69
2023-03-01T00:34:21.376Z,10.89
2023-03-01T00:35:22.380Z,10.5
2023-03-01T00:36:21.785Z,11.89
2023-03-01T00:37:21.332Z,11
2023-03-01T00:38:21.680Z,10.80
2023-03-01T00:39:21.916Z,10.89
2023-03-01T00:40:22.389Z,10.60
2023-03-01T00:41:21.970Z,10.80
2023-03-01T00:42:21.886Z,12.10
2023-03-01T00:43:21.924Z,10.60
2023-03-01T00:44:21.050Z,12.19
2023-03-01T00:45:22.070Z,10.60
2023-03-01T00:46:21.617Z,10.19
2023-03-01T00:47:21.560Z,10.80
2023-03-01T00:48:21.356Z,10.10
2023-03-01T00:49:21.789Z,9.699
2023-03-01T00:50:21.558Z,11
2023-03-01T00:51:22.202Z,9.399
2023-03-01T00:52:21.267Z,11
2023-03-01T00:53:21.244Z,10.5
2023-03-01T00:54:21.713Z,10.89
2023-03-01T00:55:22.270Z,10.69
2023-03-01T00:56:21.361Z,9.699
2023-03-01T00:57:22.299Z,10.19
2023-03-01T00:58:21.164Z,11.19
2023-03-01T00:59:21.021Z,10.10
2023-03-01T01:00:23.342Z,9.600
2023-03-01T01:01:24.833Z,11
2023-03-01T01:02:21.903Z,11.19
2023-03-01T01:03:21.344Z,10.89
2023-03-01T01:04:21.769Z,11.10
2023-03-01T01:05:22.411Z,10
2023-03-01T01:06:21.588Z,9.600
2023-03-01T01:07:21.655Z,11
2023-03-01T01:08:21.249Z,11.39
2023-03-01T01:09:21.257Z,9.5
2023-03-01T01:10:21.497Z,11.10
2023-03-01T01:11:21.855Z,10.5
2023-03-01T01:12:21.702Z,10.60
2023-03-01T01:13:20.832Z,11
2023-03-01T01:14:21.443Z,13.39
2023-03-01T01:15:22.059Z,10.19
2023-03-01T01:16:21.429Z,11.30
2023-03-01T01:17:21.983Z,10.5
2023-03-01T01:18:20.955Z,11.39
2023-03-01T01:19:21.097Z,10.60
2023-03-01T01:21:20.950Z,9.600
2023-03-01T01:22:21.813Z,10.80
2023-03-01T01:23:21.705Z,11.19
2023-03-01T01:24:22.045Z,11.60
2023-03-01T01:25:21.771Z,12.39
2023-03-01T01:26:22.136Z,11.19
2023-03-01T01:27:21.046Z,10.89
2023-03-01T01:28:21.246Z,10.60
2023-03-01T01:29:21.159Z,10.39
2023-03-01T01:30:21.861Z,11.89
2023-03-01T01:31:21.420Z,10.5
2023-03-01T01:32:22.298Z,10.89
2023-03-01T01:33:21.458Z,10.69
2023-03-01T01:34:21.732Z,11
2023-03-01T01:35:21.346Z,10.60
2023-03-01T01:36:21.341Z,12
2023-03-01T01:37:21.972Z,10.39
2023-03-01T01:38:21.181Z,11.30
2023-03-01T01:39:21.320Z,11.10
2023-03-01T01:40:21.689Z,9.899
2023-03-01T01:41:21.647Z,9.600
2023-03-01T01:42:21.840Z,10
2023-03-01T01:43:21.324Z,10.5
2023-03-01T01:44:21.727Z,11.10
2023-03-01T01:45:21.727Z,10.39
2023-03-01T01:46:21.489Z,11.89
2023-03-01T01:47:21.011Z,10.10
2023-03-01T01:48:21.848Z,10.89
2023-03-01T01:49:21.156Z,11.60
2023-03-01T01:50:20.942Z,10.5
2023-03-01T01:51:21.281Z,9.5
2023-03-01T01:52:21.641Z,11.60
2023-03-01T01:53:21.837Z,10.60
2023-03-01T01:54:21.598Z,11
2023-03-01T01:55:21.384Z,10.5
2023-03-01T01:56:20.795Z,11.60
2023-03-01T01:57:21.536Z,11.19
2023-03-01T01:58:20.895Z,11.69
2023-03-01T01:59:21.796Z,10.89
2023-03-01T02:01:37.175Z,11.30
2023-03-01T02:03:22.611Z,9.699
2023-03-01T02:04:21.894Z,11.10
2023-03-01T02:05:21.462Z,11.5
2023-03-01T02:06:21.483Z,10.30
2023-03-01T02:07:22.141Z,10.5
2023-03-01T02:08:21.467Z,10
2023-03-01T02:09:21.483Z,10.69
2023-03-01T02:10:21.569Z,11.80
2023-03-01T02:11:21.402Z,11.19
2023-03-01T02:12:22.265Z,11.10
2023-03-01T02:13:21.761Z,11
2023-03-01T02:14:21.781Z,11.5
2023-03-01T02:15:22.948Z,11.39
2023-03-01T02:17:21.695Z,10.60
2023-03-01T02:18:21.334Z,10.80
2023-03-01T02:19:21.588Z,11.80
2023-03-01T02:20:21.604Z,11.60
2023-03-01T02:22:21.264Z,13.10
2023-03-01T02:23:21.295Z,11.89
2023-03-01T02:24:21.144Z,10.10
2023-03-01T02:25:21.804Z,12.69
2023-03-01T02:26:22.125Z,11.89
2023-03-01T02:27:21.196Z,10.89
2023-03-01T02:28:21.545Z,10.80
2023-03-01T02:29:21.666Z,11.69
2023-03-01T02:30:21.737Z,10.80
2023-03-01T02:31:21.472Z,11.30
2023-03-01T02:32:21.960Z,11
2023-03-01T02:33:22.106Z,12.19
2023-03-01T02:34:21.617Z,13
2023-03-01T02:35:21.863Z,13.19
2023-03-01T02:36:21.912Z,11.10
2023-03-01T02:37:21.915Z,11.39
2023-03-01T02:38:21.779Z,14.5
2023-03-01T02:39:21.544Z,12.5
2023-03-01T02:40:21.497Z,13.5
2023-03-01T02:41:22.227Z,13.60
2023-03-01T02:42:21.823Z,12.39
2023-03-01T02:43:21.584Z,11.30
2023-03-01T02:44:22.159Z,10.80
2023-03-01T02:45:22.015Z,11.80
2023-03-01T02:46:21.500Z,10.60
2023-03-01T02:47:21.847Z,12
2023-03-01T02:48:21.419Z,12.5
2023-03-01T02:49:22.294Z,13.30
2023-03-01T02:50:21.549Z,11.89
2023-03-01T02:51:21.838Z,11.39
2023-03-01T02:52:21.249Z,11.10
2023-03-01T02:53:21.437Z,12.60
2023-03-01T02:54:21.847Z,11.39
2023-03-01T02:55:21.608Z,11.10
2023-03-01T02:56:21.852Z,11.39
2023-03-01T02:57:21.652Z,10.80
2023-03-01T02:58:22.209Z,12.10
2023-03-01T02:59:22.335Z,12.5
2023-03-01T03:00:23.832Z,12.80
2023-03-01T03:01:22.388Z,11.69
2023-03-01T03:02:22.269Z,12.89
2023-03-01T03:03:21.612Z,11.5
2023-03-01T03:04:21.574Z,11.89
2023-03-01T03:05:22.163Z,11.5
2023-03-01T03:06:21.551Z,12.5
2023-03-01T03:07:20.999Z,11.5
2023-03-01T03:08:20.981Z,12
2023-03-01T03:09:21.971Z,12.39
2023-03-01T03:10:21.532Z,11.89
2023-03-01T03:11:21.485Z,12.19
2023-03-01T03:13:21.494Z,11.69
2023-03-01T03:14:21.406Z,10.80
2023-03-01T03:15:21.697Z,11
2023-03-01T03:16:21.447Z,10.69
2023-03-01T03:17:21.722Z,11.5
2023-03-01T03:18:22.295Z,10.89
2023-03-01T03:19:21.566Z,11
2023-03-01T03:20:22.395Z,11.10
2023-03-01T03:21:22.445Z,11.5
2023-03-01T03:22:22.682Z,11.19
2023-03-01T03:23:21.861Z,11.89
2023-03-01T03:24:21.606Z,11.10
2023-03-01T03:25:22.905Z,12.39
2023-03-01T03:26:21.422Z,12.10
2023-03-01T03:27:21.709Z,10.80
2023-03-01T03:28:21.502Z,11.60
2023-03-01T03:29:21.843Z,12.30
2023-03-01T03:30:22.227Z,11.19
2023-03-01T03:31:21.856Z,12.30
2023-03-01T03:32:22.010Z,12
2023-03-01T03:33:22.122Z,13.60
2023-03-01T03:34:22.092Z,11.39
2023-03-01T03:35:21.826Z,11
2023-03-01T03:36:21.813Z,12.19
2023-03-01T03:37:21.469Z,11.80
2023-03-01T03:38:21.632Z,11.30
2023-03-01T03:39:21.522Z,12.60
2023-03-01T03:40:21.527Z,11.30
2023-03-01T03:41:21.785Z,14.60
2023-03-01T03:42:22.025Z,12.39
2023-03-01T03:43:21.988Z,11.89
2023-03-01T03:44:21.464Z,12.69
2023-03-01T03:45:22.026Z,13.30
2023-03-01T03:46:21.151Z,11.80
2023-03-01T03:47:21.367Z,12.30
2023-03-01T03:48:21.347Z,11.39
2023-03-01T03:49:22.657Z,11.60
2023-03-01T03:50:21.761Z,11.5
2023-03-01T03:53:21.271Z,11.60
2023-03-01T03:54:21.661Z,12.89
2023-03-01T03:55:22.745Z,12.19
2023-03-01T03:56:21.281Z,10.80
2023-03-01T03:57:22.092Z,11.89
2023-03-01T03:58:21.597Z,12
2023-03-01T03:59:22.433Z,11.30
2023-03-01T04:00:23.536Z,11.80
2023-03-01T04:01:21.971Z,12.30
2023-03-01T04:02:22.137Z,11.10
2023-03-01T04:03:21.704Z,11.39
2023-03-01T04:04:21.948Z,10.89
2023-03-01T04:05:21.897Z,12.10
2023-03-01T04:06:21.814Z,12.80
2023-03-01T04:07:21.918Z,12.39
2023-03-01T04:08:21.269Z,12.30
2023-03-01T04:09:21.601Z,12
2023-03-01T04:10:22.606Z,11.39
2023-03-01T04:11:21.291Z,11.19
2023-03-01T04:12:21.281Z,11.80
2023-03-01T04:13:21.358Z,11.10
2023-03-01T04:14:21.617Z,11.60
2023-03-01T04:15:22.686Z,10.30
2023-03-01T04:16:30.479Z,11.80
2023-03-01T04:17:21.364Z,11.5
2023-03-01T04:18:21.726Z,11.89
2023-03-01T04:19:21.470Z,11.69
2023-03-01T04:20:21.816Z,11.19
2023-03-01T04:21:21.983Z,11.30
2023-03-01T04:22:21.547Z,11.69
2023-03-01T04:23:21.508Z,11.80
2023-03-01T04:24:21.668Z,11.10
2023-03-01T04:25:22.072Z,11.19
2023-03-01T04:26:21.264Z,11.5
2023-03-01T04:27:21.436Z,11.30
2023-03-01T04:28:21.854Z,11.5
2023-03-01T04:29:21.227Z,10.69
2023-03-01T04:30:21.785Z,10.80
2023-03-01T04:31:21.467Z,11.80
2023-03-01T04:32:21.498Z,12.89
2023-03-01T04:33:22.147Z,11.10
2023-03-01T04:34:22.126Z,12.5
2023-03-01T04:35:21.636Z,11.89
2023-03-01T04:36:22.569Z,12.10
2023-03-01T04:37:21.687Z,11.89
2023-03-01T04:38:22.248Z,12.19
2023-03-01T04:39:21.839Z,11.39
2023-03-01T04:40:22.036Z,11.19
2023-03-01T04:41:22.485Z,12.5
2023-03-01T04:42:22.325Z,12.19
2023-03-01T04:43:22.575Z,12.5
2023-03-01T04:44:21.936Z,12
2023-03-01T04:45:22.158Z,11.30
2023-03-01T04:46:22.216Z,11.89
2023-03-01T04:47:21.697Z,12.10
2023-03-01T04:48:44.131Z,11.80
2023-03-01T04:50:21.935Z,12.80
2023-03-01T04:51:21.745Z,12.89
2023-03-01T04:52:22.260Z,12
2023-03-01T04:53:21.369Z,12.30
2023-03-01T04:54:21.663Z,11.19
2023-03-01T04:55:22.337Z,12.5
2023-03-01T04:56:22.326Z,11.60
2023-03-01T04:57:21.824Z,11.69
2023-03-01T04:58:21.142Z,12.19
2023-03-01T04:59:21.915Z,11.30
2023-03-01T05:00:23.431Z,11.5
2023-03-01T05:01:22.399Z,11.10
2023-03-01T05:02:22.715Z,11.60
2023-03-01T05:03:21.894Z,11.69
2023-03-01T05:05:22.865Z,11.30
2023-03-01T05:06:22.704Z,12
2023-03-01T05:07:22.539Z,10.89
2023-03-01T05:08:21.683Z,10.69
2023-03-01T05:09:21.556Z,12.30
2023-03-01T05:10:21.835Z,11.89
2023-03-01T05:11:21.794Z,11
2023-03-01T05:12:21.610Z,11.89
2023-03-01T05:13:22.063Z,11.30
2023-03-01T05:14:21.530Z,12.19
2023-03-01T05:15:22.557Z,11.60
2023-03-01T05:16:21.710Z,12.30
2023-03-01T05:17:22.420Z,12
2023-03-01T05:18:22.146Z,12.10
2023-03-01T05:19:21.595Z,10.10
2023-03-01T05:20:22.437Z,11.39
2023-03-01T05:21:22.162Z,11.89
2023-03-01T05:22:21.936Z,12
2023-03-01T05:23:21.690Z,11.30
2023-03-01T05:24:21.519Z,12
2023-03-01T05:25:22.560Z,11.19
2023-03-01T05:26:28.714Z,12.10
2023-03-01T05:28:21.775Z,12.30
2023-03-01T05:29:21.373Z,12.39
2023-03-01T05:30:21.720Z,13
2023-03-01T05:31:22.131Z,12.10
2023-03-01T05:32:21.895Z,11.89
2023-03-01T05:34:21.535Z,13.60
2023-03-01T05:35:22.125Z,12.19
2023-03-01T05:36:21.500Z,12
2023-03-01T05:37:21.673Z,12.10
2023-03-01T05:38:21.433Z,11.60
2023-03-01T05:39:22.336Z,12.5
2023-03-01T05:41:21.719Z,12.69
2023-03-01T05:42:21.601Z,13.80
2023-03-01T05:43:21.831Z,12.30
2023-03-01T05:44:21.825Z,12.80
2023-03-01T05:45:22.043Z,13.19
2023-03-01T05:46:22.275Z,11.80
2023-03-01T05:47:21.915Z,12
2023-03-01T05:48:21.726Z,10.89
2023-03-01T05:49:22.015Z,12.80
2023-03-01T05:50:21.824Z,11.89
2023-03-01T05:51:22.734Z,12.69
2023-03-01T05:52:21.965Z,12.19
2023-03-01T05:53:21.613Z,12.30
2023-03-01T05:54:21.773Z,12
2023-03-01T05:55:22.187Z,11.89
2023-03-01T05:56:21.648Z,11.69
2023-03-01T05:57:21.455Z,13.19
2023-03-01T05:58:21.515Z,11.80
2023-03-01T05:59:22.158Z,10.89
2023-03-01T06:00:23.007Z,12.10
2023-03-01T06:01:22.264Z,12.60
2023-03-01T06:02:21.484Z,11.19
2023-03-01T06:03:22.153Z,13
2023-03-01T06:04:21.550Z,12.30
2023-03-01T06:05:21.915Z,12.39
2023-03-01T06:06:21.130Z,12
2023-03-01T06:07:21.543Z,12.39
2023-03-01T06:08:21.646Z,12.60
2023-03-01T06:09:21.868Z,13
2023-03-01T06:10:22.217Z,14
2023-03-01T06:11:22.271Z,12.39
2023-03-01T06:12:22.670Z,13
2023-03-01T06:13:22.098Z,12.5
2023-03-01T06:14:21.201Z,13.10
2023-03-01T06:15:22.540Z,12.89
2023-03-01T06:16:22.080Z,14.60
2023-03-01T06:17:22.701Z,12.69
2023-03-01T06:18:22.467Z,11.60
2023-03-01T06:19:21.551Z,12.69
2023-03-01T06:20:22.600Z,13.80
2023-03-01T06:21:22.110Z,11.60
2023-03-01T06:22:22.734Z,13.60
2023-03-01T06:23:22.107Z,14
2023-03-01T06:24:21.451Z,14.19
2023-03-01T06:25:23.136Z,13.39
2023-03-01T06:27:26.612Z,13.60
2023-03-01T06:28:21.274Z,12.5
2023-03-01T06:29:22.004Z,15.10
2023-03-01T06:30:22.559Z,11.80
2023-03-01T06:31:21.549Z,14.89
2023-03-01T06:32:22.262Z,14.60
2023-03-01T06:33:26.871Z,14
2023-03-01T06:34:21.944Z,13.80
2023-03-01T06:35:26.102Z,13.5
2023-03-01T06:36:22.714Z,14.89
2023-03-01T06:37:22.509Z,14.30
2023-03-01T06:38:22.160Z,12.5
2023-03-01T06:39:22.234Z,14
2023-03-01T06:40:21.942Z,13.30
2023-03-01T06:41:21.637Z,13.89
2023-03-01T06:42:21.840Z,14.30
2023-03-01T06:43:21.826Z,13.60
2023-03-01T06:44:21.927Z,13.39
2023-03-01T06:45:21.854Z,14.39
2023-03-01T06:46:21.646Z,14.19
2023-03-01T06:47:35.574Z,13
2023-03-01T06:48:21.745Z,13.60
2023-03-01T06:49:21.374Z,12
2023-03-01T06:50:22.623Z,14.39
2023-03-01T06:52:21.757Z,15
2023-03-01T06:53:21.559Z,13.39
2023-03-01T06:54:21.607Z,13.60
2023-03-01T06:55:21.958Z,13.10
2023-03-01T06:56:22.578Z,14.69
2023-03-01T06:57:21.998Z,13.19
2023-03-01T06:59:22.309Z,15.10
2023-03-01T07:00:23.738Z,14.19
2023-03-01T07:01:23.334Z,13.60
2023-03-01T07:02:22.255Z,14.80
2023-03-01T07:03:22.746Z,13.30
2023-03-01T07:04:21.615Z,13.10
2023-03-01T07:05:22.450Z,13.39
2023-03-01T07:06:22.168Z,15.30
2023-03-01T07:07:21.607Z,13.60
2023-03-01T07:08:22.267Z,15.5
2023-03-01T07:09:21.952Z,13.10
2023-03-01T07:10:21.645Z,12.80
2023-03-01T07:11:21.996Z,15.30
2023-03-01T07:12:22.213Z,14.69
2023-03-01T07:13:21.879Z,13.39
2023-03-01T07:14:22.506Z,14.80
2023-03-01T07:15:22.214Z,12.89
2023-03-01T07:16:23.044Z,13.80
2023-03-01T07:17:22.289Z,14.30
2023-03-01T07:18:22.215Z,14.5
2023-03-01T07:19:22.424Z,14.10
2023-03-01T07:20:22.653Z,14
2023-03-01T07:21:21.742Z,15
2023-03-01T07:23:22.226Z,14
2023-03-01T07:24:22.256Z,15.89
2023-03-01T07:25:22.641Z,16.60
2023-03-01T07:26:24.574Z,16.20
2023-03-01T07:27:22.860Z,14.60
2023-03-01T07:28:22.538Z,15.39
2023-03-01T07:29:21.712Z,14.10
2023-03-01T07:30:21.698Z,15.89
2023-03-01T07:31:21.729Z,15.5
2023-03-01T07:32:22.395Z,14.80
2023-03-01T07:33:22.411Z,15
2023-03-01T07:36:22.052Z,15.80
2023-03-01T07:37:22.911Z,14.89
2023-03-01T07:39:22.664Z,15.19
2023-03-01T07:41:22.928Z,16.70
2023-03-01T07:42:22.444Z,15.19
2023-03-01T07:43:22.503Z,15.89
2023-03-01T07:44:22.230Z,15.39
2023-03-01T07:45:22.030Z,15.60
2023-03-01T07:46:23.018Z,16
2023-03-01T07:47:22.302Z,15.30
2023-03-01T07:48:22.653Z,15.5
2023-03-01T07:49:23.313Z,18.20
2023-03-01T07:50:22.637Z,16.60
2023-03-01T07:51:22.397Z,16.20
2023-03-01T07:52:21.778Z,16.79
2023-03-01T07:53:22.341Z,14.89
2023-03-01T07:54:22.020Z,14
2023-03-01T07:55:22.817Z,16.5
2023-03-01T07:56:22.303Z,22.29
2023-03-01T07:57:22.375Z,16.79
2023-03-01T07:58:22.905Z,14.80
2023-03-01T07:59:22.018Z,17.10
2023-03-01T08:00:23.699Z,15.30
2023-03-01T08:01:25.741Z,18.10
2023-03-01T08:02:22.565Z,16.60
2023-03-01T08:03:22.417Z,16.70
2023-03-01T08:04:23.106Z,17.20
2023-03-01T08:05:23.731Z,16.39
2023-03-01T08:06:21.540Z,16.29
2023-03-01T08:07:22.925Z,15.80
2023-03-01T08:08:22.284Z,17.20
2023-03-01T08:09:22.906Z,16.20
2023-03-01T08:10:22.513Z,15.5
2023-03-01T08:11:23.000Z,15.10
2023-03-01T08:13:23.087Z,14.5
2023-03-01T08:14:23.236Z,15.39
2023-03-01T08:15:23.488Z,16.10
2023-03-01T08:16:22.885Z,14.69
2023-03-01T08:17:22.780Z,15.19
2023-03-01T08:18:22.657Z,15.69
2023-03-01T08:19:22.108Z,14.69
2023-03-01T08:20:22.760Z,15
2023-03-01T08:21:23.262Z,13.89
2023-03-01T08:22:22.819Z,14.80
2023-03-01T08:23:22.366Z,15.69
2023-03-01T08:24:22.315Z,15.89
2023-03-01T08:25:22.824Z,13.60
2023-03-01T08:26:22.797Z,14.10
2023-03-01T08:27:23.637Z,15.10
2023-03-01T08:28:23.049Z,15
2023-03-01T08:30:24.496Z,14.30
2023-03-01T08:32:23.227Z,14.39
2023-03-01T08:33:22.363Z,15.19
2023-03-01T08:34:23.570Z,14.60
2023-03-01T08:35:23.149Z,15.69
2023-03-01T08:36:22.675Z,14.69
2023-03-01T08:37:22.597Z,16.10
2023-03-01T08:38:22.432Z,14.89
2023-03-01T08:40:22.395Z,16
2023-03-01T08:41:22.178Z,14.69
2023-03-01T08:42:19.741Z,14.60
2023-03-01T08:48:24.923Z,14.19
2023-03-01T08:49:19.769Z,15.30
2023-03-01T08:50:25.488Z,15.69
2023-03-01T08:51:19.626Z,15.39
2023-03-01T08:52:25.009Z,18.10
2023-03-01T08:53:19.421Z,15.5
2023-03-01T08:54:20.028Z,16.29
2023-03-01T08:55:19.286Z,14.89
2023-03-01T08:56:25.230Z,16.10
2023-03-01T08:58:20.409Z,17.89
2023-03-01T08:59:20.042Z,18.5
2023-03-01T09:00:27.025Z,17.20
2023-03-01T09:01:20.672Z,15.10
2023-03-01T09:02:28.511Z,14.89
2023-03-01T09:03:20.182Z,16.20
2023-03-01T09:04:27.954Z,15.39
2023-03-01T09:05:20.469Z,17.60
2023-03-01T09:06:28.368Z,15.60
2023-03-01T09:07:20.163Z,19.5
2023-03-01T09:08:20.107Z,17.5
2023-03-01T09:09:20.817Z,16.89
2023-03-01T09:10:19.843Z,18.89
2023-03-01T09:11:19.962Z,17.29
2023-03-01T09:12:20.054Z,17.10
2023-03-01T09:13:20.829Z,17
2023-03-01T09:14:20.288Z,16.60
2023-03-01T09:15:21.003Z,16.5
2023-03-01T09:16:20.385Z,16.79
2023-03-01T09:17:20.011Z,16.89
2023-03-01T09:18:20.003Z,17.29
2023-03-01T09:19:20.332Z,17.10
2023-03-01T09:20:20.579Z,17
2023-03-01T09:21:27.474Z,15.89
2023-03-01T09:22:20.052Z,15.80
2023-03-01T09:23:20.160Z,14.69
2023-03-01T09:24:20.369Z,15.39
2023-03-01T09:25:20.104Z,15.5
2023-03-01T09:26:20.056Z,15.89
2023-03-01T09:27:20.049Z,17.10
2023-03-01T09:28:29.487Z,16.20
2023-03-01T09:29:19.673Z,17
2023-03-01T09:30:20.129Z,16.5
2023-03-01T09:31:19.941Z,17.20
2023-03-01T09:33:20.572Z,15.80
2023-03-01T09:34:20.501Z,16.89
2023-03-01T09:35:20.500Z,17.10
2023-03-01T09:36:20.162Z,16.70
2023-03-01T09:37:20.089Z,17.29
2023-03-01T09:38:20.429Z,15.10
2023-03-01T09:39:20.492Z,15.39
2023-03-01T09:40:19.777Z,16.39
2023-03-01T09:41:19.975Z,18
2023-03-01T09:42:20.094Z,15.69
2023-03-01T09:43:20.468Z,16.29
2023-03-01T09:44:20.099Z,15.5
2023-03-01T09:45:20.355Z,18.70
2023-03-01T09:46:19.201Z,17.5
2023-03-01T09:47:20.003Z,15.30
2023-03-01T09:48:19.702Z,15.89
2023-03-01T09:49:20.622Z,16.70
2023-03-01T09:50:20.385Z,16.29
2023-03-01T09:52:20.122Z,17
2023-03-01T09:53:20.491Z,15.80
2023-03-01T09:54:20.566Z,17.39
2023-03-01T09:55:20.048Z,15.19
2023-03-01T09:56:20.440Z,16.10
2023-03-01T09:58:19.556Z,16.70
2023-03-01T09:59:22.255Z,16.89
2023-03-01T10:01:20.590Z,17.29
2023-03-01T10:02:20.263Z,16.5
2023-03-01T10:03:20.328Z,16.60
2023-03-01T10:04:20.401Z,17.79
2023-03-01T10:05:20.202Z,15.69
2023-03-01T10:06:34.055Z,17
2023-03-01T10:07:20.144Z,16.29
2023-03-01T10:08:19.850Z,17.39
2023-03-01T10:09:20.213Z,16.39
2023-03-01T10:10:20.049Z,17.29
2023-03-01T10:11:21.339Z,16
2023-03-01T10:12:19.955Z,16.39
2023-03-01T10:13:20.149Z,15.5
2023-03-01T10:14:21.046Z,16.20
2023-03-01T10:15:20.832Z,17
2023-03-01T10:16:20.185Z,19.60
2023-03-01T10:17:20.435Z,15.30
2023-03-01T10:18:20.312Z,16.5
2023-03-01T10:19:20.077Z,17.29
2023-03-01T10:20:20.544Z,16.20
2023-03-01T10:21:20.279Z,14.30
2023-03-01T10:22:20.292Z,17.10
2023-03-01T10:23:21.167Z,17.39
2023-03-01T10:24:20.217Z,17.60
2023-03-01T10:25:20.065Z,17.10
2023-03-01T10:26:20.149Z,18.20
2023-03-01T10:27:20.053Z,15.89
2023-03-01T10:28:19.735Z,15.5
2023-03-01T10:29:20.223Z,16
2023-03-01T10:30:20.041Z,17.20
2023-03-01T10:31:19.702Z,18.5
2023-03-01T10:32:20.191Z,16.60
2023-03-01T10:33:20.294Z,19.10
2023-03-01T10:34:20.129Z,18.29
2023-03-01T10:35:20.755Z,16.70
2023-03-01T10:36:19.621Z,18.29
2023-03-01T10:37:20.289Z,17.20
2023-03-01T10:38:19.885Z,17.5
2023-03-01T10:39:20.366Z,15
2023-03-01T10:40:20.100Z,17.29
2023-03-01T10:41:21.714Z,15.80
2023-03-01T10:42:21.849Z,16.70
2023-03-01T10:43:22.277Z,18.70
2023-03-01T10:44:22.212Z,16.60
2023-03-01T10:45:22.119Z,16.5
2023-03-01T10:46:22.765Z,16.79
2023-03-01T10:47:22.808Z,17.5
2023-03-01T10:48:22.232Z,17.10
2023-03-01T10:49:23.428Z,17
2023-03-01T10:50:22.534Z,18.20
2023-03-01T10:51:22.770Z,18.39
2023-03-01T10:52:22.150Z,17.70
2023-03-01T10:53:22.783Z,16.79
2023-03-01T10:54:22.956Z,19
2023-03-01T10:55:22.825Z,17.20
2023-03-01T10:56:23.310Z,16.70
2023-03-01T10:57:22.753Z,17
2023-03-01T10:58:22.293Z,16.70
2023-03-01T10:59:22.572Z,18.20
2023-03-01T11:00:23.228Z,17.60
2023-03-01T11:01:24.261Z,17.10
2023-03-01T11:02:25.277Z,17.39
2023-03-01T11:03:24.013Z,17.70
2023-03-01T11:04:23.672Z,18.29
2023-03-01T11:05:24.658Z,17.89
2023-03-01T11:06:23.335Z,17.5
2023-03-01T11:07:23.257Z,16.60
2023-03-01T11:08:24.420Z,17.70
2023-03-01T11:09:22.342Z,17.89
2023-03-01T11:10:23.158Z,18.29
2023-03-01T11:11:22.346Z,18.70
2023-03-01T11:12:22.436Z,19.5
2023-03-01T11:13:22.799Z,17.20
2023-03-01T11:14:27.156Z,18.10
2023-03-01T11:15:23.287Z,19.10
2023-03-01T11:16:23.445Z,18
2023-03-01T11:17:22.713Z,16.10
2023-03-01T11:18:26.619Z,18.79
2023-03-01T11:19:22.796Z,18.29
2023-03-01T11:20:24.690Z,17.29
2023-03-01T11:21:22.465Z,18
2023-03-01T11:22:22.750Z,15.60
2023-03-01T11:23:27.613Z,16.60
2023-03-01T11:24:22.210Z,16.29
2023-03-01T11:25:23.101Z,17.10
2023-03-01T11:27:28.799Z,18.20
2023-03-01T11:28:22.837Z,18.10
2023-03-01T11:29:22.520Z,17
2023-03-01T11:30:23.433Z,17.5
2023-03-01T11:31:23.025Z,18.79
2023-03-01T11:32:21.948Z,15.80
2023-03-01T11:33:22.576Z,18.10
2023-03-01T11:34:22.881Z,16.39
2023-03-01T11:35:22.444Z,17.39
2023-03-01T11:36:22.561Z,17.10
2023-03-01T11:37:23.745Z,19.39
2023-03-01T11:38:22.896Z,16.79
2023-03-01T11:39:22.747Z,18
2023-03-01T11:40:24.067Z,18.29
2023-03-01T11:41:23.217Z,16.89
2023-03-01T11:42:22.315Z,16.39
2023-03-01T11:43:37.052Z,17.79
2023-03-01T11:44:23.130Z,16.89
2023-03-01T11:45:22.280Z,18.5
2023-03-01T11:46:22.163Z,17.79
2023-03-01T11:47:22.032Z,17.70
2023-03-01T11:48:22.863Z,18.10
2023-03-01T11:49:22.067Z,18.5
2023-03-01T11:50:23.492Z,17.10
2023-03-01T11:51:22.771Z,17.89
2023-03-01T11:52:22.213Z,18.39
2023-03-01T11:53:22.498Z,18.79
2023-03-01T11:54:22.489Z,17.29
2023-03-01T11:55:23.061Z,17.39
2023-03-01T11:56:23.872Z,16.89
2023-03-01T11:57:25.019Z,16.79
2023-03-01T11:58:22.027Z,16.70
2023-03-01T11:59:22.999Z,19.10
2023-03-01T12:00:23.466Z,18.10
2023-03-01T12:01:42.657Z,16.79
2023-03-01T12:02:22.962Z,17.20
2023-03-01T12:03:22.508Z,18.10
2023-03-01T12:04:23.008Z,20.39
2023-03-01T12:05:22.224Z,17.39
2023-03-01T12:06:23.533Z,18.60
2023-03-01T12:07:22.212Z,18.39
2023-03-01T12:08:22.653Z,18.60
2023-03-01T12:09:44.440Z,17.39
2023-03-01T12:10:22.451Z,17.20
2023-03-01T12:11:22.440Z,18.5
2023-03-01T12:12:22.338Z,16.70
2023-03-01T12:13:23.460Z,16.20
2023-03-01T12:14:22.863Z,18.29
2023-03-01T12:15:23.051Z,17
2023-03-01T12:16:37.582Z,17.10
2023-03-01T12:17:22.709Z,15.89
2023-03-01T12:18:22.932Z,16
2023-03-01T12:19:21.827Z,16.39
2023-03-01T12:20:22.424Z,17.39
2023-03-01T12:21:22.091Z,16.79
2023-03-01T12:22:23.026Z,17
2023-03-01T12:23:22.463Z,15.60
2023-03-01T12:24:22.883Z,15.80
2023-03-01T12:25:22.232Z,15.30
2023-03-01T12:26:22.755Z,13.89
2023-03-01T12:27:22.446Z,17.70
2023-03-01T12:28:22.478Z,14.60
2023-03-01T12:29:22.541Z,15.19
2023-03-01T12:30:22.774Z,17.29
2023-03-01T12:31:22.682Z,19.89
2023-03-01T12:32:22.698Z,17.70
2023-03-01T12:33:22.919Z,16.29
2023-03-01T12:34:22.327Z,16.20
2023-03-01T12:35:22.586Z,16.89
2023-03-01T12:36:22.908Z,19.70
2023-03-01T12:37:22.823Z,16.29
2023-03-01T12:38:22.353Z,17.60
2023-03-01T12:39:22.561Z,16.79
2023-03-01T12:40:22.772Z,16.10
2023-03-01T12:41:22.636Z,15.60
2023-03-01T12:42:22.708Z,17
2023-03-01T12:43:23.097Z,16.5
2023-03-01T12:44:22.800Z,17.29
2023-03-01T12:45:23.344Z,17.5
2023-03-01T12:46:23.026Z,15.69
2023-03-01T12:47:23.789Z,14.80
2023-03-01T12:48:23.059Z,15.19
2023-03-01T12:49:22.465Z,16.20
2023-03-01T12:50:22.708Z,15.39
2023-03-01T12:51:22.670Z,15.89
2023-03-01T12:52:22.940Z,15.10
2023-03-01T12:53:22.762Z,14
2023-03-01T12:54:23.225Z,15.5
2023-03-01T12:55:23.217Z,14.39
2023-03-01T12:56:22.362Z,15.89
2023-03-01T12:57:22.565Z,14.69
2023-03-01T12:58:23.663Z,14.60
2023-03-01T12:59:23.744Z,14.39
2023-03-01T13:00:24.748Z,18.39
2023-03-01T13:01:23.735Z,15.19
2023-03-01T13:02:22.960Z,14.30
2023-03-01T13:03:22.552Z,12.69
2023-03-01T13:04:23.558Z,13.30
2023-03-01T13:05:22.337Z,12.80
2023-03-01T13:06:25.787Z,13.39
2023-03-01T13:07:23.879Z,16.5
2023-03-01T13:08:23.310Z,14.5
2023-03-01T13:09:23.011Z,13.60
2023-03-01T13:10:23.733Z,13.30
2023-03-01T13:11:23.219Z,15.60
2023-03-01T13:12:23.361Z,14.5
2023-03-01T13:13:23.485Z,13.89
2023-03-01T13:14:22.536Z,14.10
2023-03-01T13:17:22.917Z,13.30
2023-03-01T13:18:23.063Z,15.19
2023-03-01T13:19:22.784Z,13.39
2023-03-01T13:20:22.840Z,12.19
2023-03-01T13:21:22.314Z,13.60
2023-03-01T13:22:23.321Z,14.69
2023-03-01T13:23:22.728Z,14.89
2023-03-01T13:24:23.443Z,16.10
2023-03-01T13:25:27.641Z,14.19
2023-03-01T13:26:22.517Z,13.5
2023-03-01T13:27:22.981Z,13.30
2023-03-01T13:28:22.517Z,16.20
2023-03-01T13:29:23.152Z,14.69
2023-03-01T13:30:22.530Z,13.39
2023-03-01T13:31:23.318Z,14.19
2023-03-01T13:32:26.800Z,12.39
2023-03-01T13:33:23.006Z,13.5
2023-03-01T13:34:22.494Z,13
2023-03-01T13:35:22.778Z,13.80
2023-03-01T13:36:23.385Z,14
2023-03-01T13:37:23.205Z,14.89
2023-03-01T13:38:22.665Z,13.69
2023-03-01T13:39:22.793Z,12.60
2023-03-01T13:40:23.579Z,14
2023-03-01T13:41:22.750Z,14.10
2023-03-01T13:42:24.261Z,13.60
2023-03-01T13:43:23.266Z,14.80